Logo AVAMET
Benvolgut visitant, si us plau, ingressa Recuperar contrasenya
AVAMET paisatges

Benissa convent

Dades diàries. Acumulats / Últims 30 dies disponibles

Data Temperatura (°C) Humitat rel. (%) Pressió rel. (hPa) Vent (km/h) Precipitació
Mínima Mitjana Màxima Amplitud
tèrmica
Mínima Mitjana Màxima Mínima Mitjana Màxima Predom. Mitjana Ràfega
màxima
Total
(mm)
Índex-n
Mínima Mitjana Màxima Mínima Mitjana Màxima n
0 a 1
P0 max
mm 5'
Dades mensuals acumulades fins l'últim dia disponible
04/2020 8,7 9,6 10,3 12,4 14,0 16,4 18,7 10,0 46 81 96 1.016 1.024 1.032   8,7 45,1 13,2
Dades anuals acumulades fins l'últim dia disponible
2020 4,9 9,7 16,4 13,0 9,9 16,6 25,4 20,5 18 73 98 1.008 1.029 1.042   9,2 106,2 231,8
Últims 30 dies disponibles
06-04-2020 10,3     13,1     16,6 6,3 69 82 92 1.028 1.030 1.032 S 6,3 27,4 0,0
05-04-2020 9,5     12,6     16,3 6,8 62 78 89 1.026 1.027 1.028 S 3,6 24,1 0,0
04-04-2020 8,7     12,4     16,0 7,3 65 79 90 1.025 1.026 1.028 SSO 6,9 27,4 0,0
03-04-2020 9,3     12,3     16,6 7,3 46 74 95 1.020 1.023 1.026 SSO 11,9 45,1 0,2
02-04-2020 10,2     11,0     14,0 3,8 76 90 96 1.016 1.018 1.021 O 16,4 43,5 2,2 0,20
01-04-2020 9,8     13,2     18,7 8,9 64 85 96 1.017 1.018 1.020 SO 7,2 35,4 10,8 0,06 5,00
31-03-2020 7,4     10,5     15,5 8,1 81 92 96 1.015 1.017 1.019 NO 18,9 40,2 1,2
30-03-2020 8,2     11,3     14,4 6,2 64 79 96 1.019 1.020 1.021 SSO 12,2 35,4 1,8
29-03-2020 7,8     16,2     18,9 11,1 41 54 68 1.021 1.023 1.025 SSE 12,5 41,8 0,0
28-03-2020 7,1     10,3     14,0 6,9 53 73 92 1.023 1.024 1.026 ONO 14,8 40,2 0,0
27-03-2020 6,7     8,1     9,9 3,2 81 90 94 1.018 1.020 1.023 ONO 9,1 30,6 5,4 0,32 0,60
26-03-2020 6,9     9,7     13,9 7,0 45 77 91 1.014 1.017 1.021 OSO 10,6 33,8 0,0
25-03-2020 7,4     8,7     10,5 3,1 73 86 94 1.022 1.023 1.024 SO 7,5 35,4 9,6 0,42 2,10
24-03-2020 10,4     11,7     12,7 2,3 74 91 96 1.020 1.022 1.024 ENE 18,0 53,1 8,6 0,72 2,80
23-03-2020 10,2     12,6     15,1 4,9 80 91 96 1.021 1.022 1.024 ENE 6,1 29,0 18,0 0,48 3,30
22-03-2020 9,8     11,6     14,1 4,3 84 93 96 1.017 1.019 1.022 NW 7,9 32,2 5,2 0,49 1,40
21-03-2020 10,8     11,3     11,9 1,1 91 95 96 1.019 1.020 1.023 NNW 9,2 38,6 3,8 0,34 0,60
20-03-2020 10,6     11,8     13,4 2,8 79 90 94 1.023 1.025 1.027 N 10,9 35,4 2,8 0,51 1,00
19-03-2020 10,9     12,8     15,3 4,4 70 87 96 1.027 1.029 1.032 NNW 11,6 29,0 0,0
18-03-2020 11,3     12,5     14,2 2,9 83 92 96 1.031 1.032 1.034 NNW 18,8 41,8 0,0
17-03-2020 9,3     11,3     13,2 3,9 91 96 98 1.026 1.030 1.034 NNW 13,2 51,5 9,8 0,42 0,90
16-03-2020 8,7     11,4     15,1 6,4 84 92 96 1.018 1.020 1.026 SSE 8,0 27,4 5,2 0,42 0,40
15-03-2020 9,3     13,1     16,6 7,3 63 86 97 1.021 1.024 1.027 SSE 7,9 30,6 0,2
14-03-2020 10,6     13,7     18,3 7,7 71 86 96 1.025 1.027 1.028 SSE 8,0 24,1 0,0
13-03-2020 11,9     13,7     16,7 4,8 50 83 93 1.023 1.025 1.027 NNW 20,0 48,3 0,0
12-03-2020 12,8     16,9     21,1 8,3 40 60 93 1.023 1.026 1.029 SSE 6,0 25,7 0,0
11-03-2020 12,5     18,1     24,4 11,9 40 61 92 1.028 1.029 1.031 SSE 4,5 14,5 0,0
10-03-2020 10,3     13,7     16,8 6,5 56 66 77 1.030 1.031 1.034 SSE 7,2 32,2 0,0
09-03-2020 13,6     16,3     20,1 6,5 32 45 61 1.026 1.028 1.030 NW 12,1 37,0 0,0
08-03-2020 10,1     15,0     18,7 8,6 30 51 73 1.027 1.030 1.032 SSE 7,2 35,4 0,0
Últims 13 mesos disponibles
03/2020 6,7 10,4 16,4 13,4 9,9 16,6 24,4 17,7 44 73 96 1.014 1.024 1.032 SSE 12,0 83,7 73,4
02/2020 6,3 10,7 15,8 14,4 12,7 18,3 25,4 19,1 29 69 93 1.021 1.032 1.040 SSE 6,8 46,7 4,6
01/2020 4,9 8,2 14,6 11,3 11,6 14,9 20,8 15,9 49 75 95 1.021 1.032 1.039 NW 8,8 106,2 140,6
12/2019 5,6 10,7 15,4 13,6 11,9 17,0 22,9 17,3 45 71 92 1.011 1.025 1.040 NW 9,7 90,1 89,8
11/2019 6,6 11,9 19,8 14,8 13,2 18,3 26,4 19,8 43 57 80 1.005 1.017 1.025 NW 11,8 70,8 14,6
10/2019 10,9 15,6 19,8 19,0 15,3 22,8 25,7 14,8 45 68 91 1.015 1.023 1.028 SSE 7,5 83,7 65,2
Tots els anys disponibles
Temperatura (°C)
Humitat relativa (%)
Velocitat del vent i ràfega màxima (km/h)
Direcció del vent (°)
Pressió (hPa)
Precipitació (mm)
Nota sobre les dades: s'avisa a l'usuari de la provisionalitat i no oficialitat d'aquestes dades
Logo AVAMET blanc
Web allotjada a Sollutia
Llicència de Creative CommonsLa web d'AVAMET i els seus continguts estan subjectes a una llicència de
Reconeixement - No Comercial - Compartir igual
Últimes estacions:  Altea - Com. Regants (Soci), Almoines (Inforatge), Beniparrell (Inforatge), Albal (Inforatge), Almussafes - Parc Industrial (Inforatge), La Vilavella (Soci), la Serratella (soci) - - -